sensor_id;sensor_type;location;lat;lon;timestamp;pressure;altitude;pressure_sealevel;temperature;humidity
34674;BME280;20879;55.668;37.858;2023-05-24T00:01:27;99792.81;;;16.03;80.88
34674;BME280;20879;55.668;37.858;2023-05-24T00:03:57;99795.38;;;16.05;81.12
34674;BME280;20879;55.668;37.858;2023-05-24T00:06:29;99779.88;;;16.00;80.44
34674;BME280;20879;55.668;37.858;2023-05-24T00:09:05;99787.53;;;16.05;80.59
34674;BME280;20879;55.668;37.858;2023-05-24T00:11:35;99791.88;;;16.04;80.85
34674;BME280;20879;55.668;37.858;2023-05-24T00:14:04;99784.16;;;16.01;80.93
34674;BME280;20879;55.668;37.858;2023-05-24T00:16:34;99782.38;;;16.03;80.52
34674;BME280;20879;55.668;37.858;2023-05-24T00:19:08;99787.59;;;16.03;80.16
34674;BME280;20879;55.668;37.858;2023-05-24T00:21:46;99783.25;;;16.02;80.72
34674;BME280;20879;55.668;37.858;2023-05-24T00:24:15;99779.06;;;15.98;81.22
34674;BME280;20879;55.668;37.858;2023-05-24T00:26:45;99772.19;;;15.96;81.57
34674;BME280;20879;55.668;37.858;2023-05-24T00:29:14;99772.22;;;15.94;81.84
34674;BME280;20879;55.668;37.858;2023-05-24T00:31:44;99770.56;;;15.93;81.55
34674;BME280;20879;55.668;37.858;2023-05-24T00:34:13;99766.22;;;15.92;81.87
34674;BME280;20879;55.668;37.858;2023-05-24T00:36:51;99762.03;;;15.88;82.28
34674;BME280;20879;55.668;37.858;2023-05-24T00:39:20;99762.25;;;15.82;82.67
34674;BME280;20879;55.668;37.858;2023-05-24T00:41:49;99760.53;;;15.81;82.39
34674;BME280;20879;55.668;37.858;2023-05-24T00:44:19;99760.63;;;15.78;82.65
34674;BME280;20879;55.668;37.858;2023-05-24T00:46:54;99756.63;;;15.67;83.09
34674;BME280;20879;55.668;37.858;2023-05-24T00:49:24;99753.44;;;15.59;83.39
34674;BME280;20879;55.668;37.858;2023-05-24T00:51:56;99752.75;;;15.54;83.33
34674;BME280;20879;55.668;37.858;2023-05-24T00:54:25;99752.47;;;15.62;83.12
34674;BME280;20879;55.668;37.858;2023-05-24T00:56:55;99751.53;;;15.64;82.89
34674;BME280;20879;55.668;37.858;2023-05-24T00:59:25;99748.09;;;15.62;83.18
34674;BME280;20879;55.668;37.858;2023-05-24T01:02:00;99751.59;;;15.63;82.94
34674;BME280;20879;55.668;37.858;2023-05-24T01:04:29;99744.59;;;15.63;82.55
34674;BME280;20879;55.668;37.858;2023-05-24T01:07:12;99739.38;;;15.63;82.45
34674;BME280;20879;55.668;37.858;2023-05-24T01:09:58;99740.31;;;15.61;82.26
34674;BME280;20879;55.668;37.858;2023-05-24T01:12:55;99736.75;;;15.63;82.04
34674;BME280;20879;55.668;37.858;2023-05-24T01:15:32;99738.53;;;15.63;81.97
34674;BME280;20879;55.668;37.858;2023-05-24T01:18:09;99733.19;;;15.66;80.90
34674;BME280;20879;55.668;37.858;2023-05-24T01:20:49;99741.88;;;15.66;81.31
34674;BME280;20879;55.668;37.858;2023-05-24T01:23:40;99741.09;;;15.64;81.99
34674;BME280;20879;55.668;37.858;2023-05-24T01:26:31;99733.31;;;15.63;81.89
34674;BME280;20879;55.668;37.858;2023-05-24T01:29:09;99735.09;;;15.61;81.84
34674;BME280;20879;55.668;37.858;2023-05-24T01:31:39;99740.31;;;15.61;81.43
34674;BME280;20879;55.668;37.858;2023-05-24T01:34:10;99733.31;;;15.63;81.46
34674;BME280;20879;55.668;37.858;2023-05-24T01:36:40;99739.38;;;15.63;81.56
34674;BME280;20879;55.668;37.858;2023-05-24T01:39:11;99737.66;;;15.62;81.43
34674;BME280;20879;55.668;37.858;2023-05-24T01:41:48;99738.41;;;15.66;81.81
34674;BME280;20879;55.668;37.858;2023-05-24T01:44:30;99734.84;;;15.68;81.10
34674;BME280;20879;55.668;37.858;2023-05-24T01:47:12;99737.53;;;15.67;81.16
34674;BME280;20879;55.668;37.858;2023-05-24T01:49:48;99734.03;;;15.66;81.08
34674;BME280;20879;55.668;37.858;2023-05-24T01:52:30;99727.97;;;15.66;81.09
34674;BME280;20879;55.668;37.858;2023-05-24T01:55:02;99721.91;;;15.65;80.84
34674;BME280;20879;55.668;37.858;2023-05-24T01:57:33;99724.53;;;15.65;80.88
34674;BME280;20879;55.668;37.858;2023-05-24T02:00:13;99727.91;;;15.67;80.82
34674;BME280;20879;55.668;37.858;2023-05-24T02:02:45;99719.19;;;15.68;80.49
34674;BME280;20879;55.668;37.858;2023-05-24T02:05:17;99726.91;;;15.71;80.07
34674;BME280;20879;55.668;37.858;2023-05-24T02:07:46;99730.53;;;15.67;80.42
34674;BME280;20879;55.668;37.858;2023-05-24T02:10:16;99719.97;;;15.70;80.44
34674;BME280;20879;55.668;37.858;2023-05-24T02:12:46;99715.75;;;15.66;79.77
34674;BME280;20879;55.668;37.858;2023-05-24T02:15:17;99722.31;;;15.78;80.01
34674;BME280;20879;55.668;37.858;2023-05-24T02:17:48;99721.09;;;15.88;79.60
34674;BME280;20879;55.668;37.858;2023-05-24T02:20:40;99712.41;;;15.88;79.91
34674;BME280;20879;55.668;37.858;2023-05-24T02:23:15;99707.75;;;15.96;79.51
34674;BME280;20879;55.668;37.858;2023-05-24T02:25:58;99714.66;;;15.97;79.65
34674;BME280;20879;55.668;37.858;2023-05-24T02:28:27;99719.00;;;15.98;79.63
34674;BME280;20879;55.668;37.858;2023-05-24T02:31:03;99716.38;;;15.98;79.70
34674;BME280;20879;55.668;37.858;2023-05-24T02:33:39;99719.84;;;15.99;79.41
34674;BME280;20879;55.668;37.858;2023-05-24T02:36:09;99712.19;;;15.94;79.75
34674;BME280;20879;55.668;37.858;2023-05-24T02:38:38;99715.59;;;15.96;79.73
34674;BME280;20879;55.668;37.858;2023-05-24T02:41:08;99712.34;;;15.89;80.37
34674;BME280;20879;55.668;37.858;2023-05-24T02:43:48;99706.16;;;15.92;80.41
34674;BME280;20879;55.668;37.858;2023-05-24T02:46:20;99700.88;;;15.94;80.38
34674;BME280;20879;55.668;37.858;2023-05-24T02:48:49;99705.03;;;15.99;79.86
34674;BME280;20879;55.668;37.858;2023-05-24T02:51:19;99705.03;;;15.99;80.33
34674;BME280;20879;55.668;37.858;2023-05-24T02:53:53;99704.91;;;16.02;79.74
34674;BME280;20879;55.668;37.858;2023-05-24T02:56:23;99700.59;;;16.01;79.30
34674;BME280;20879;55.668;37.858;2023-05-24T02:58:53;99678.59;;;15.85;79.71
34674;BME280;20879;55.668;37.858;2023-05-24T03:01:25;99698.94;;;15.99;78.85
34674;BME280;20879;55.668;37.858;2023-05-24T03:03:57;99703.16;;;16.03;78.37
34674;BME280;20879;55.668;37.858;2023-05-24T03:06:26;99694.28;;;16.07;78.56
34674;BME280;20879;55.668;37.858;2023-05-24T03:08:56;99701.50;;;16.24;78.07
34674;BME280;20879;55.668;37.858;2023-05-24T03:11:26;99693.97;;;16.38;77.56
34674;BME280;20879;55.668;37.858;2023-05-24T03:14:01;99695.81;;;16.57;76.84
34674;BME280;20879;55.668;37.858;2023-05-24T03:16:41;99676.91;;;16.72;75.54
34674;BME280;20879;55.668;37.858;2023-05-24T03:19:12;99688.88;;;17.00;74.55
34674;BME280;20879;55.668;37.858;2023-05-24T03:21:43;99686.13;;;17.24;73.91
34674;BME280;20879;55.668;37.858;2023-05-24T03:24:12;99689.47;;;17.46;72.60
34674;BME280;20879;55.668;37.858;2023-05-24T03:26:48;99680.69;;;17.68;71.55
34674;BME280;20879;55.668;37.858;2023-05-24T03:29:18;99675.44;;;17.87;70.78
34674;BME280;20879;55.668;37.858;2023-05-24T03:31:50;99673.75;;;17.86;70.75
34674;BME280;20879;55.668;37.858;2023-05-24T03:34:19;99679.84;;;17.87;70.47
34674;BME280;20879;55.668;37.858;2023-05-24T03:36:49;99670.66;;;17.78;70.72
34674;BME280;20879;55.668;37.858;2023-05-24T03:39:19;99681.97;;;17.78;70.84
34674;BME280;20879;55.668;37.858;2023-05-24T03:41:57;99682.69;;;17.82;71.06
34674;BME280;20879;55.668;37.858;2023-05-24T03:44:26;99673.81;;;17.85;70.77
34674;BME280;20879;55.668;37.858;2023-05-24T03:46:58;99685.94;;;17.87;70.38
34674;BME280;20879;55.668;37.858;2023-05-24T03:49:29;99670.81;;;17.94;69.95
34674;BME280;20879;55.668;37.858;2023-05-24T03:51:58;99663.38;;;18.04;69.52
34674;BME280;20879;55.668;37.858;2023-05-24T03:54:27;99658.91;;;18.06;69.87
34674;BME280;20879;55.668;37.858;2023-05-24T03:56:57;99663.94;;;18.10;69.49
34674;BME280;20879;55.668;37.858;2023-05-24T03:59:27;99665.97;;;18.23;69.39
34674;BME280;20879;55.668;37.858;2023-05-24T04:01:59;99656.34;;;18.23;68.91
34674;BME280;20879;55.668;37.858;2023-05-24T04:04:29;99659.72;;;18.25;69.71
34674;BME280;20879;55.668;37.858;2023-05-24T04:06:58;99665.06;;;18.24;69.53
34674;BME280;20879;55.668;37.858;2023-05-24T04:09:33;99656.03;;;18.29;69.68
34674;BME280;20879;55.668;37.858;2023-05-24T04:12:07;99662.03;;;18.68;68.80
34674;BME280;20879;55.668;37.858;2023-05-24T04:14:41;99656.13;;;19.17;66.83
34674;BME280;20879;55.668;37.858;2023-05-24T04:17:12;99659.84;;;19.46;64.81
34674;BME280;20879;55.668;37.858;2023-05-24T04:22:40;99648.50;;;19.28;63.31
34674;BME280;20879;55.668;37.858;2023-05-24T04:25:26;99667.22;;;19.22;63.87
34674;BME280;20879;55.668;37.858;2023-05-24T04:27:56;99666.78;;;18.96;64.92
34674;BME280;20879;55.668;37.858;2023-05-24T04:30:26;99652.84;;;18.77;64.47
34674;BME280;20879;55.668;37.858;2023-05-24T04:33:04;99654.00;;;18.54;65.26
34674;BME280;20879;55.668;37.858;2023-05-24T04:35:34;99660.16;;;18.35;66.10
34674;BME280;20879;55.668;37.858;2023-05-24T04:38:04;99663.19;;;18.26;66.48
34674;BME280;20879;55.668;37.858;2023-05-24T04:40:33;99665.69;;;18.29;67.02
34674;BME280;20879;55.668;37.858;2023-05-24T04:43:03;99672.94;;;18.41;66.79
34674;BME280;20879;55.668;37.858;2023-05-24T04:45:45;99667.91;;;18.73;65.95
34674;BME280;20879;55.668;37.858;2023-05-24T04:48:16;99658.44;;;18.88;65.37
34674;BME280;20879;55.668;37.858;2023-05-24T04:50:52;99673.34;;;18.88;65.54
34674;BME280;20879;55.668;37.858;2023-05-24T04:53:23;99672.56;;;19.03;65.14
34674;BME280;20879;55.668;37.858;2023-05-24T04:55:52;99685.00;;;19.17;64.86
34674;BME280;20879;55.668;37.858;2023-05-24T05:01:33;99678.13;;;19.48;63.69
34674;BME280;20879;55.668;37.858;2023-05-24T05:04:04;99679.63;;;19.36;64.14
34674;BME280;20879;55.668;37.858;2023-05-24T05:06:34;99684.94;;;19.52;64.60
34674;BME280;20879;55.668;37.858;2023-05-24T05:09:05;99680.88;;;19.62;63.63
34674;BME280;20879;55.668;37.858;2023-05-24T05:11:36;99694.69;;;19.99;62.69
34674;BME280;20879;55.668;37.858;2023-05-24T05:14:06;99683.84;;;20.21;61.22
34674;BME280;20879;55.668;37.858;2023-05-24T05:16:41;99692.47;;;20.23;61.25
34674;BME280;20879;55.668;37.858;2023-05-24T05:19:14;99697.13;;;20.50;60.87
34674;BME280;20879;55.668;37.858;2023-05-24T05:21:44;99691.94;;;20.65;59.93
34674;BME280;20879;55.668;37.858;2023-05-24T05:24:14;99697.19;;;20.65;59.58
34674;BME280;20879;55.668;37.858;2023-05-24T05:26:44;99696.50;;;20.77;59.54
34674;BME280;20879;55.668;37.858;2023-05-24T05:29:13;99691.38;;;20.90;59.16
34674;BME280;20879;55.668;37.858;2023-05-24T05:31:42;99682.28;;;20.95;58.04
34674;BME280;20879;55.668;37.858;2023-05-24T05:34:14;99688.69;;;21.06;57.79
34674;BME280;20879;55.668;37.858;2023-05-24T05:36:43;99681.75;;;21.19;57.29
34674;BME280;20879;55.668;37.858;2023-05-24T05:39:12;99691.47;;;21.47;57.10
34674;BME280;20879;55.668;37.858;2023-05-24T05:41:42;99688.38;;;21.55;56.24
34674;BME280;20879;55.668;37.858;2023-05-24T05:44:12;99675.69;;;21.76;55.98
34674;BME280;20879;55.668;37.858;2023-05-24T05:46:42;99689.31;;;21.83;55.56
34674;BME280;20879;55.668;37.858;2023-05-24T05:49:22;99686.34;;;22.16;54.42
34674;BME280;20879;55.668;37.858;2023-05-24T05:51:52;99688.09;;;22.58;53.66
34674;BME280;20879;55.668;37.858;2023-05-24T05:54:21;99679.97;;;22.88;52.46
34674;BME280;20879;55.668;37.858;2023-05-24T05:56:56;99692.88;;;23.06;52.58
34674;BME280;20879;55.668;37.858;2023-05-24T05:59:43;99694.72;;;23.18;52.03
34674;BME280;20879;55.668;37.858;2023-05-24T06:02:13;99687.34;;;22.96;51.02
34674;BME280;20879;55.668;37.858;2023-05-24T06:04:46;99684.16;;;22.78;50.78
34674;BME280;20879;55.668;37.858;2023-05-24T06:07:35;99683.81;;;22.57;51.59
34674;BME280;20879;55.668;37.858;2023-05-24T06:10:06;99680.75;;;22.63;51.55
34674;BME280;20879;55.668;37.858;2023-05-24T06:12:36;99676.09;;;22.66;51.54
34674;BME280;20879;55.668;37.858;2023-05-24T06:15:07;99673.97;;;22.59;51.22
34674;BME280;20879;55.668;37.858;2023-05-24T06:17:37;99668.66;;;22.46;51.39
34674;BME280;20879;55.668;37.858;2023-05-24T06:20:11;99672.28;;;22.30;52.14
34674;BME280;20879;55.668;37.858;2023-05-24T06:22:42;99670.63;;;22.15;52.01
34674;BME280;20879;55.668;37.858;2023-05-24T06:25:17;99668.34;;;22.23;52.20
34674;BME280;20879;55.668;37.858;2023-05-24T06:27:49;99654.00;;;22.42;52.07
34674;BME280;20879;55.668;37.858;2023-05-24T06:30:19;99658.69;;;22.64;51.83
34674;BME280;20879;55.668;37.858;2023-05-24T06:32:48;99654.13;;;22.53;51.76
34674;BME280;20879;55.668;37.858;2023-05-24T06:35:20;99650.06;;;22.34;51.96
34674;BME280;20879;55.668;37.858;2023-05-24T06:37:49;99652.06;;;22.16;52.42
34674;BME280;20879;55.668;37.858;2023-05-24T06:40:43;99652.25;;;21.72;54.26
34674;BME280;20879;55.668;37.858;2023-05-24T06:43:13;99660.25;;;21.41;55.07
34674;BME280;20879;55.668;37.858;2023-05-24T06:45:43;99664.47;;;21.29;55.47
34674;BME280;20879;55.668;37.858;2023-05-24T06:48:13;99662.97;;;21.40;55.18
34674;BME280;20879;55.668;37.858;2023-05-24T06:50:45;99644.66;;;21.53;55.25
34674;BME280;20879;55.668;37.858;2023-05-24T06:53:15;99665.59;;;21.83;54.72
34674;BME280;20879;55.668;37.858;2023-05-24T06:55:44;99659.66;;;22.21;54.13
34674;BME280;20879;55.668;37.858;2023-05-24T06:58:14;99667.19;;;22.82;52.87
34674;BME280;20879;55.668;37.858;2023-05-24T07:00:43;99661.13;;;23.33;50.96
34674;BME280;20879;55.668;37.858;2023-05-24T07:03:13;99655.75;;;23.97;50.20
34674;BME280;20879;55.668;37.858;2023-05-24T07:05:43;99660.34;;;24.19;48.83
34674;BME280;20879;55.668;37.858;2023-05-24T07:08:14;99647.53;;;24.37;48.30
34674;BME280;20879;55.668;37.858;2023-05-24T07:10:44;99651.22;;;24.72;47.63
34674;BME280;20879;55.668;37.858;2023-05-24T07:13:18;99645.72;;;24.86;47.22
34674;BME280;20879;55.668;37.858;2023-05-24T07:16:01;99658.72;;;25.01;46.88
34674;BME280;20879;55.668;37.858;2023-05-24T07:18:30;99654.28;;;25.12;46.54
34674;BME280;20879;55.668;37.858;2023-05-24T07:21:00;99642.50;;;25.05;46.50
34674;BME280;20879;55.668;37.858;2023-05-24T07:23:31;99653.53;;;24.99;46.53
34674;BME280;20879;55.668;37.858;2023-05-24T07:26:06;99646.19;;;24.91;46.56
34674;BME280;20879;55.668;37.858;2023-05-24T07:28:35;99650.84;;;24.76;46.80
34674;BME280;20879;55.668;37.858;2023-05-24T07:31:07;99654.22;;;24.78;46.33
34674;BME280;20879;55.668;37.858;2023-05-24T07:33:36;99658.31;;;24.83;46.46
34674;BME280;20879;55.668;37.858;2023-05-24T07:36:11;99660.63;;;24.76;46.42
34674;BME280;20879;55.668;37.858;2023-05-24T07:38:42;99659.03;;;24.73;46.50
34674;BME280;20879;55.668;37.858;2023-05-24T07:41:13;99659.31;;;24.93;46.67
34674;BME280;20879;55.668;37.858;2023-05-24T07:43:42;99652.81;;;24.97;46.23
34674;BME280;20879;55.668;37.858;2023-05-24T07:46:12;99648.28;;;25.10;46.72
34674;BME280;20879;55.668;37.858;2023-05-24T07:48:42;99651.44;;;25.16;46.61
34674;BME280;20879;55.668;37.858;2023-05-24T07:51:17;99652.16;;;25.29;46.30
34674;BME280;20879;55.668;37.858;2023-05-24T07:53:48;99659.66;;;25.35;46.25
34674;BME280;20879;55.668;37.858;2023-05-24T07:56:18;99657.84;;;25.36;45.98
34674;BME280;20879;55.668;37.858;2023-05-24T07:58:47;99667.38;;;25.38;45.85
34674;BME280;20879;55.668;37.858;2023-05-24T08:01:17;99657.59;;;25.39;45.77
34674;BME280;20879;55.668;37.858;2023-05-24T08:03:47;99661.34;;;25.36;45.64
34674;BME280;20879;55.668;37.858;2023-05-24T08:06:16;99668.88;;;25.29;46.03
34674;BME280;20879;55.668;37.858;2023-05-24T08:08:48;99663.25;;;25.34;45.83
34674;BME280;20879;55.668;37.858;2023-05-24T08:11:28;99669.72;;;25.30;46.42
34674;BME280;20879;55.668;37.858;2023-05-24T08:13:58;99659.13;;;25.30;46.34
34674;BME280;20879;55.668;37.858;2023-05-24T08:16:28;99662.19;;;25.37;45.74
34674;BME280;20879;55.668;37.858;2023-05-24T08:18:57;99667.00;;;25.43;45.85
34674;BME280;20879;55.668;37.858;2023-05-24T08:21:27;99670.84;;;25.50;45.54
34674;BME280;20879;55.668;37.858;2023-05-24T08:23:59;99673.16;;;25.55;45.47
34674;BME280;20879;55.668;37.858;2023-05-24T08:26:29;99661.84;;;25.53;45.58
34674;BME280;20879;55.668;37.858;2023-05-24T08:29:04;99668.81;;;25.76;45.17
34674;BME280;20879;55.668;37.858;2023-05-24T08:31:38;99660.81;;;25.99;44.77
34674;BME280;20879;55.668;37.858;2023-05-24T08:34:09;99663.41;;;26.33;43.64
34674;BME280;20879;55.668;37.858;2023-05-24T08:36:40;99658.38;;;26.83;42.41
34674;BME280;20879;55.668;37.858;2023-05-24T08:39:11;99660.84;;;26.96;41.85
34674;BME280;20879;55.668;37.858;2023-05-24T08:41:45;99659.28;;;26.73;42.03
34674;BME280;20879;55.668;37.858;2023-05-24T08:44:46;99662.06;;;26.71;42.04
34674;BME280;20879;55.668;37.858;2023-05-24T08:47:15;99666.88;;;26.77;42.12
34674;BME280;20879;55.668;37.858;2023-05-24T08:49:46;99668.25;;;26.93;41.61
34674;BME280;20879;55.668;37.858;2023-05-24T08:52:16;99669.31;;;27.11;41.77
34674;BME280;20879;55.668;37.858;2023-05-24T08:54:54;99659.59;;;27.21;41.69
34674;BME280;20879;55.668;37.858;2023-05-24T08:57:24;99654.91;;;27.35;41.61
34674;BME280;20879;55.668;37.858;2023-05-24T08:59:54;99660.00;;;26.96;41.65
34674;BME280;20879;55.668;37.858;2023-05-24T09:02:23;99657.81;;;26.80;42.61
34674;BME280;20879;55.668;37.858;2023-05-24T09:04:55;99663.56;;;27.06;42.18
34674;BME280;20879;55.668;37.858;2023-05-24T09:07:25;99661.34;;;27.11;41.96
34674;BME280;20879;55.668;37.858;2023-05-24T09:10:03;99658.72;;;27.42;41.53
34674;BME280;20879;55.668;37.858;2023-05-24T09:12:35;99663.69;;;27.57;41.31
34674;BME280;20879;55.668;37.858;2023-05-24T09:15:10;99655.22;;;27.72;41.50
34674;BME280;20879;55.668;37.858;2023-05-24T09:17:40;99649.34;;;27.79;40.78
34674;BME280;20879;55.668;37.858;2023-05-24T09:20:14;99651.19;;;27.78;41.02
34674;BME280;20879;55.668;37.858;2023-05-24T09:22:51;99657.56;;;27.66;40.96
34674;BME280;20879;55.668;37.858;2023-05-24T09:25:30;99660.00;;;27.79;40.55
34674;BME280;20879;55.668;37.858;2023-05-24T09:28:05;99659.34;;;27.86;40.62
34674;BME280;20879;55.668;37.858;2023-05-24T09:30:35;99660.09;;;27.98;39.82
34674;BME280;20879;55.668;37.858;2023-05-24T09:33:06;99658.84;;;28.41;38.97
34674;BME280;20879;55.668;37.858;2023-05-24T09:35:41;99655.25;;;28.82;38.68
34674;BME280;20879;55.668;37.858;2023-05-24T09:38:16;99660.00;;;28.88;38.49
34674;BME280;20879;55.668;37.858;2023-05-24T09:40:59;99660.41;;;28.44;38.89
34674;BME280;20879;55.668;37.858;2023-05-24T09:43:46;99658.66;;;28.04;40.44
34674;BME280;20879;55.668;37.858;2023-05-24T09:46:16;99655.41;;;27.90;39.29
34674;BME280;20879;55.668;37.858;2023-05-24T09:48:55;99664.34;;;26.76;41.27
34674;BME280;20879;55.668;37.858;2023-05-24T09:51:30;99657.56;;;26.18;41.97
34674;BME280;20879;55.668;37.858;2023-05-24T09:54:01;99660.84;;;25.76;42.58
34674;BME280;20879;55.668;37.858;2023-05-24T09:56:34;99670.50;;;25.66;42.77
34674;BME280;20879;55.668;37.858;2023-05-24T09:59:06;99675.31;;;25.72;42.78
34674;BME280;20879;55.668;37.858;2023-05-24T10:01:36;99665.56;;;25.61;43.00
34674;BME280;20879;55.668;37.858;2023-05-24T10:04:11;99670.13;;;25.59;43.43
34674;BME280;20879;55.668;37.858;2023-05-24T10:06:41;99656.28;;;25.56;43.76
34674;BME280;20879;55.668;37.858;2023-05-24T10:09:18;99671.69;;;25.51;43.27
34674;BME280;20879;55.668;37.858;2023-05-24T10:11:55;99671.94;;;25.70;42.96
34674;BME280;20879;55.668;37.858;2023-05-24T10:14:25;99674.94;;;25.88;42.21
34674;BME280;20879;55.668;37.858;2023-05-24T10:16:56;99669.69;;;26.32;41.93
34674;BME280;20879;55.668;37.858;2023-05-24T10:19:25;99666.22;;;26.52;41.33
34674;BME280;20879;55.668;37.858;2023-05-24T10:21:57;99674.16;;;26.64;40.91
34674;BME280;20879;55.668;37.858;2023-05-24T10:24:31;99674.00;;;26.77;40.79
34674;BME280;20879;55.668;37.858;2023-05-24T10:27:13;99679.38;;;27.08;40.42
34674;BME280;20879;55.668;37.858;2023-05-24T10:29:58;99674.59;;;27.01;40.59
34674;BME280;20879;55.668;37.858;2023-05-24T10:32:34;99680.94;;;26.89;40.79
34674;BME280;20879;55.668;37.858;2023-05-24T10:35:16;99685.84;;;26.94;41.60
34674;BME280;20879;55.668;37.858;2023-05-24T10:37:47;99676.53;;;26.67;41.81
34674;BME280;20879;55.668;37.858;2023-05-24T10:40:17;99677.69;;;25.98;43.36
34674;BME280;20879;55.668;37.858;2023-05-24T10:42:54;99684.47;;;26.02;43.95
34674;BME280;20879;55.668;37.858;2023-05-24T10:45:30;99683.03;;;26.09;44.00
34674;BME280;20879;55.668;37.858;2023-05-24T10:48:35;99687.00;;;26.47;43.23
34674;BME280;20879;55.668;37.858;2023-05-24T10:51:35;99692.78;;;26.85;42.89
34674;BME280;20879;55.668;37.858;2023-05-24T10:54:17;99694.34;;;27.09;42.05
34674;BME280;20879;55.668;37.858;2023-05-24T10:56:48;99695.56;;;27.26;41.34
34674;BME280;20879;55.668;37.858;2023-05-24T10:59:38;99695.19;;;27.51;41.63
34674;BME280;20879;55.668;37.858;2023-05-24T11:02:11;99699.22;;;27.55;41.21
34674;BME280;20879;55.668;37.858;2023-05-24T11:04:45;99693.09;;;27.55;41.29
34674;BME280;20879;55.668;37.858;2023-05-24T11:07:20;99701.09;;;27.34;42.05
34674;BME280;20879;55.668;37.858;2023-05-24T11:09:49;99691.88;;;27.17;41.94
34674;BME280;20879;55.668;37.858;2023-05-24T11:12:29;99695.56;;;27.26;42.03
34674;BME280;20879;55.668;37.858;2023-05-24T11:15:08;99704.34;;;27.16;42.30
34674;BME280;20879;55.668;37.858;2023-05-24T11:20:44;99702.06;;;26.91;42.92
34674;BME280;20879;55.668;37.858;2023-05-24T11:23:15;99696.28;;;26.85;43.12
34674;BME280;20879;55.668;37.858;2023-05-24T11:25:46;99694.09;;;26.91;43.21
34674;BME280;20879;55.668;37.858;2023-05-24T11:28:16;99709.00;;;27.03;43.16
34674;BME280;20879;55.668;37.858;2023-05-24T11:30:48;99708.16;;;26.81;43.49
34674;BME280;20879;55.668;37.858;2023-05-24T11:33:23;99711.34;;;26.52;44.00
34674;BME280;20879;55.668;37.858;2023-05-24T11:35:54;99712.41;;;26.17;45.48
34674;BME280;20879;55.668;37.858;2023-05-24T11:38:30;99710.41;;;25.76;45.75
34674;BME280;20879;55.668;37.858;2023-05-24T11:41:06;99725.66;;;25.38;47.09
34674;BME280;20879;55.668;37.858;2023-05-24T11:43:36;99723.16;;;25.01;47.61
34674;BME280;20879;55.668;37.858;2023-05-24T11:46:09;99715.88;;;24.81;48.28
34674;BME280;20879;55.668;37.858;2023-05-24T11:48:39;99713.66;;;24.74;48.34
34674;BME280;20879;55.668;37.858;2023-05-24T11:51:08;99716.13;;;24.89;47.23
34674;BME280;20879;55.668;37.858;2023-05-24T11:53:49;99709.03;;;25.01;47.28
34674;BME280;20879;55.668;37.858;2023-05-24T11:56:21;99719.63;;;24.89;47.41
34674;BME280;20879;55.668;37.858;2023-05-24T11:58:54;99716.22;;;24.87;47.29
34674;BME280;20879;55.668;37.858;2023-05-24T12:01:27;99708.22;;;24.65;47.36
34674;BME280;20879;55.668;37.858;2023-05-24T12:04:02;99720.22;;;24.93;47.60
34674;BME280;20879;55.668;37.858;2023-05-24T12:06:35;99707.25;;;25.01;46.82
34674;BME280;20879;55.668;37.858;2023-05-24T12:09:11;99706.88;;;24.94;46.81
34674;BME280;20879;55.668;37.858;2023-05-24T12:11:41;99703.69;;;25.25;47.10
34674;BME280;20879;55.668;37.858;2023-05-24T12:14:11;99704.84;;;25.09;47.05
34674;BME280;20879;55.668;37.858;2023-05-24T12:16:48;99692.84;;;25.05;47.14
34674;BME280;20879;55.668;37.858;2023-05-24T12:19:18;99695.78;;;25.47;46.32
34674;BME280;20879;55.668;37.858;2023-05-24T12:22:00;99704.41;;;25.16;46.98
34674;BME280;20879;55.668;37.858;2023-05-24T12:24:37;99691.91;;;25.29;46.96
34674;BME280;20879;55.668;37.858;2023-05-24T12:27:17;99688.59;;;25.61;46.35
34674;BME280;20879;55.668;37.858;2023-05-24T12:29:46;99689.25;;;25.97;45.43
34674;BME280;20879;55.668;37.858;2023-05-24T12:32:18;99698.81;;;26.11;44.90
34674;BME280;20879;55.668;37.858;2023-05-24T12:34:53;99697.69;;;26.25;44.51
34674;BME280;20879;55.668;37.858;2023-05-24T12:37:23;99694.91;;;26.26;44.64
34674;BME280;20879;55.668;37.858;2023-05-24T12:39:52;99686.31;;;26.34;44.34
34674;BME280;20879;55.668;37.858;2023-05-24T12:42:35;99686.44;;;26.32;44.27
34674;BME280;20879;55.668;37.858;2023-05-24T12:51:12;99693.38;;;25.90;44.89
34674;BME280;20879;55.668;37.858;2023-05-24T12:53:42;99678.69;;;25.74;45.34
34674;BME280;20879;55.668;37.858;2023-05-24T12:56:17;99681.34;;;25.74;45.23
34674;BME280;20879;55.668;37.858;2023-05-24T12:58:48;99674.97;;;25.99;45.17
34674;BME280;20879;55.668;37.858;2023-05-24T13:01:17;99678.03;;;26.27;44.77
34674;BME280;20879;55.668;37.858;2023-05-24T13:03:56;99684.09;;;26.50;43.64
34674;BME280;20879;55.668;37.858;2023-05-24T13:06:27;99686.41;;;26.44;43.93
34674;BME280;20879;55.668;37.858;2023-05-24T13:08:56;99678.31;;;26.78;43.81
34674;BME280;20879;55.668;37.858;2023-05-24T13:11:26;99689.19;;;26.42;43.97
34674;BME280;20879;55.668;37.858;2023-05-24T13:14:02;99682.50;;;26.27;43.96
34674;BME280;20879;55.668;37.858;2023-05-24T13:16:32;99694.44;;;25.98;44.52
34674;BME280;20879;55.668;37.858;2023-05-24T13:19:08;99704.22;;;25.87;44.83
34674;BME280;20879;55.668;37.858;2023-05-24T13:21:40;99702.31;;;26.00;44.34
34674;BME280;20879;55.668;37.858;2023-05-24T13:24:12;99706.97;;;26.19;43.73
34674;BME280;20879;55.668;37.858;2023-05-24T13:26:43;99706.72;;;26.22;43.36
34674;BME280;20879;55.668;37.858;2023-05-24T13:29:13;99701.06;;;26.27;43.20
34674;BME280;20879;55.668;37.858;2023-05-24T13:31:45;99701.94;;;26.16;43.85
34674;BME280;20879;55.668;37.858;2023-05-24T13:34:15;99689.56;;;25.71;44.53
34674;BME280;20879;55.668;37.858;2023-05-24T13:36:46;99704.41;;;25.16;46.09